Terminal Aerodrome Forecast
Issued by NWS

Home | Current Version | Previous Version | Text Only | Print | Product List | Glossary On
Versions: 1 2 3 4 5 6 7 8 9 10 11 12 13 14 15 16 17 18 19 20 21 22 23 24 25 26 27 28 29 30 31 32 33 34 35
060
FTUS44 KFWD 201743
TAFGKY
TAF
KGKY 201743Z 2018/2118 17016G26KT P6SM VCTS OVC015CB
      TEMPO 2020/2023 3SM TSRA BKN015CB
     FM202300 36021KT 4SM SHRA VCTS BKN015CB
      TEMPO 2023/2102 3SM TSRA BKN008CB
     FM210200 35017KT P6SM -SHRA OVC008
     FM210600 35018KT P6SM VCSH OVC015
     FM211300 35015KT 6SM SHRA OVC008
     FM211600 36017KT 5SM SHRA VCTS OVC015CB=

USA.gov is the U.S. government's official web portal to all federal, state and local government web resources and services.